Time;durP1;ratioP1;P1;durP2;ratioP2;P2;SDS_P1;SDS_P2;PMS_P1;PMS_P2;Temp;Humidity;BMP_temperature;BMP_pressure;BME280_temperature;BME280_humidity;BME280_pressure;Samples;Min_cycle;Max_cycle;Signal;HPM_P1;HPM_P2
2022/04/26 03:38:48;;;;;;;41.50;21.45;;;9.00;99.90;;;;;;6750009;88;20739;-78
2022/04/26 03:48:48;;;;;;;41.03;21.65;;;9.00;99.90;;;;;;6751791;88;20187;-77
2022/04/26 03:58:49;;;;;;;34.50;17.98;;;9.10;99.90;;;;;;6751617;88;20700;-78
2022/04/26 04:08:49;;;;;;;29.10;15.95;;;9.30;99.90;;;;;;6754938;88;20184;-78
2022/04/26 04:29:10;;;;;;;25.67;14.15;;;9.80;99.90;;;;;;6756528;88;20251;-77
2022/04/26 04:39:13;;;;;;;26.73;14.63;;;9.80;99.90;;;;;;6756543;88;20293;-76
2022/04/26 04:49:13;;;;;;;25.60;14.18;;;9.70;99.90;;;;;;6746185;88;20302;-78
2022/04/26 04:59:14;;;;;;;20.83;12.13;;;9.80;99.90;;;;;;6725781;88;20248;-77
2022/04/26 05:09:14;;;;;;;16.73;10.87;;;9.70;99.90;;;;;;6750834;88;20176;-79
2022/04/26 05:19:15;;;;;;;14.57;8.90;;;9.60;99.90;;;;;;6758062;88;20503;-77
2022/04/26 05:29:15;;;;;;;12.27;7.12;;;9.50;99.90;;;;;;6748907;88;20342;-78
2022/04/26 05:39:16;;;;;;;10.23;6.68;;;9.60;99.90;;;;;;6748858;88;20197;-79
2022/04/26 05:49:16;;;;;;;9.23;5.70;;;9.80;99.90;;;;;;6750581;88;20311;-78
2022/04/26 05:59:17;;;;;;;6.65;4.60;;;9.90;99.90;;;;;;6749828;88;20177;-77
2022/04/26 06:09:19;;;;;;;10.73;6.40;;;10.00;99.90;;;;;;6746775;88;20303;-78
2022/04/26 06:19:19;;;;;;;14.50;8.95;;;10.50;99.90;;;;;;6747914;88;20648;-78
2022/04/26 06:29:20;;;;;;;14.48;8.18;;;10.20;99.90;;;;;;6748572;88;20521;-80
2022/04/26 06:39:21;;;;;;;17.02;10.13;;;10.20;99.90;;;;;;6746571;88;20260;-79
2022/04/26 06:49:21;;;;;;;20.93;12.17;;;10.50;99.90;;;;;;6754429;88;20688;-79
2022/04/26 06:59:22;;;;;;;20.55;12.93;;;10.50;99.90;;;;;;6753283;88;20244;-77
2022/04/26 07:09:22;;;;;;;22.20;13.88;;;10.50;99.90;;;;;;6750599;88;20173;-79
2022/04/26 07:19:23;;;;;;;18.25;11.02;;;10.60;99.90;;;;;;6752025;88;20190;-79
2022/04/26 07:29:23;;;;;;;17.50;10.60;;;10.60;99.90;;;;;;6751938;88;20189;-79
2022/04/26 07:39:24;;;;;;;12.35;8.35;;;10.90;99.90;;;;;;6760922;88;20343;-80
2022/04/26 07:49:26;;;;;;;12.40;7.70;;;11.10;99.90;;;;;;6758134;88;20340;-77
2022/04/26 07:59:28;;;;;;;13.10;8.98;;;10.90;99.90;;;;;;6755665;88;20212;-78
2022/04/26 08:09:29;;;;;;;31.40;19.15;;;11.40;99.90;;;;;;6745272;88;20652;-77
2022/04/26 08:29:33;;;;;;;42.97;24.30;;;10.70;99.90;;;;;;6799119;87;20196;-80
2022/04/26 08:39:34;;;;;;;47.22;26.73;;;10.50;99.90;;;;;;6798115;87;20747;-80
2022/04/26 08:59:53;;;;;;;41.63;23.12;;;10.40;99.90;;;;;;6797239;87;21288;-80
2022/04/26 09:10:09;;;;;;;43.60;23.05;;;10.80;99.90;;;;;;6797265;87;20312;-81
2022/04/26 09:20:10;;;;;;;37.07;21.67;;;10.70;99.90;;;;;;6798239;87;20167;-81
2022/04/26 09:30:12;;;;;;;40.30;21.87;;;10.90;99.90;;;;;;6797772;87;20205;-80
2022/04/26 09:40:12;;;;;;;35.25;20.83;;;11.20;99.90;;;;;;6798456;87;20556;-80
2022/04/26 09:50:15;;;;;;;40.42;22.98;;;11.60;99.90;;;;;;6795146;87;20594;-80
2022/04/26 10:00:16;;;;;;;43.17;24.12;;;10.70;99.90;;;;;;6797695;87;20177;-80
2022/04/26 10:10:20;;;;;;;46.00;26.17;;;10.60;99.90;;;;;;6798625;87;20194;-80
2022/04/26 10:20:40;;;;;;;52.05;27.08;;;10.30;99.90;;;;;;6800052;87;21122;-80
2022/04/26 10:30:50;;;;;;;54.55;28.40;;;10.00;99.90;;;;;;6799475;87;20148;-80
2022/04/26 10:41:03;;;;;;;49.83;26.77;;;10.50;99.90;;;;;;6798332;87;20187;-80
2022/04/26 10:51:35;;;;;;;49.28;26.58;;;11.00;99.90;;;;;;6798960;87;20753;-81
2022/04/26 11:01:36;;;;;;;45.80;24.40;;;11.10;99.90;;;;;;6780631;88;20152;-81
2022/04/26 11:11:53;;;;;;;62.35;30.52;;;11.00;99.90;;;;;;6775240;88;20351;-81
2022/04/26 11:21:55;;;;;;;66.55;33.38;;;10.40;99.90;;;;;;6774827;88;20186;-81
2022/04/26 11:31:55;;;;;;;66.87;33.58;;;10.30;99.90;;;;;;6771016;88;20200;-81
2022/04/26 11:41:58;;;;;;;61.45;31.85;;;10.30;99.90;;;;;;6776357;87;20214;-80
2022/04/26 11:52:00;;;;;;;61.37;30.95;;;10.30;99.90;;;;;;6771124;88;20228;-80
2022/04/26 12:02:00;;;;;;;57.90;30.85;;;10.70;99.90;;;;;;6771375;88;20678;-80
2022/04/26 12:12:02;;;;;;;53.33;29.35;;;11.30;99.90;;;;;;6769981;88;20208;-81
2022/04/26 12:22:04;;;;;;;54.10;29.12;;;11.40;99.90;;;;;;6775370;88;20585;-80
2022/04/26 12:32:11;;;;;;;55.45;30.17;;;10.80;99.90;;;;;;6765486;88;20273;-78
2022/04/26 12:42:14;;;;;;;60.03;31.87;;;10.70;99.90;;;;;;6763480;88;20696;-78
2022/04/26 12:52:18;;;;;;;78.45;35.92;;;10.90;99.90;;;;;;6761441;88;20188;-80
2022/04/26 13:02:19;;;;;;;43.87;20.73;;;10.40;99.90;;;;;;6769699;88;20192;-80
2022/04/26 13:12:20;;;;;;;40.22;19.60;;;9.70;99.90;;;;;;6768436;88;20843;-80
2022/04/26 13:22:21;;;;;;;14.00;8.70;;;9.70;99.90;;;;;;6771775;88;20203;-81
2022/04/26 13:32:22;;;;;;;15.98;8.68;;;9.10;99.90;;;;;;6770541;88;20191;-81
2022/04/26 13:42:24;;;;;;;14.85;7.87;;;9.00;99.90;;;;;;6775673;88;20651;-80
2022/04/26 14:03:09;;;;;;;14.70;7.43;;;9.00;99.90;;;;;;6790494;76;20284;-80
2022/04/26 14:34:15;;;;;;;12.18;7.30;;;9.90;99.90;;;;;;6778991;88;20191;-81
2022/04/26 14:44:15;;;;;;;10.82;7.20;;;10.00;99.90;;;;;;6773780;88;20227;-82
2022/04/26 14:54:17;;;;;;;8.63;5.95;;;9.90;99.90;;;;;;6781380;88;20274;-80
2022/04/26 15:04:19;;;;;;;9.60;5.75;;;10.30;99.90;;;;;;6781452;88;20273;-82
2022/04/26 15:24:40;;;;;;;8.85;4.90;;;10.70;99.90;;;;;;6759208;88;20180;-82
2022/04/26 15:34:41;;;;;;;9.18;5.22;;;11.30;99.90;;;;;;6756559;88;20198;-81
2022/04/26 15:44:41;;;;;;;9.63;5.62;;;11.20;99.90;;;;;;6756028;88;20222;-81
2022/04/26 15:54:43;;;;;;;9.65;6.30;;;11.30;99.90;;;;;;6761546;88;20785;-81
2022/04/26 16:04:44;;;;;;;9.25;6.47;;;11.20;99.90;;;;;;6760556;88;20197;-81
2022/04/26 16:25:06;;;;;;;8.30;5.60;;;10.40;99.90;;;;;;6757845;88;20738;-83
2022/04/26 16:35:07;;;;;;;11.45;6.15;;;10.20;99.90;;;;;;6756202;88;20164;-84
2022/04/26 16:45:08;;;;;;;9.60;5.97;;;9.90;99.90;;;;;;6754251;88;20187;-79
2022/04/26 16:55:09;;;;;;;9.15;5.93;;;9.90;99.90;;;;;;6753805;88;20210;-82
2022/04/26 17:05:11;;;;;;;9.93;7.15;;;9.60;99.90;;;;;;6749908;88;20260;-80
2022/04/26 17:15:15;;;;;;;16.10;10.05;;;9.60;99.90;;;;;;6756683;88;20259;-82
2022/04/26 17:25:16;;;;;;;15.30;10.48;;;9.70;99.90;;;;;;6763791;88;20206;-85
2022/04/26 17:35:37;;;;;;;14.68;9.65;;;9.80;99.90;;;;;;6762590;77;20210;-82
2022/04/26 17:45:40;;;;;;;12.70;9.23;;;9.90;99.90;;;;;;6766385;88;21100;-83
2022/04/26 18:16:05;;;;;;;13.57;9.77;;;9.80;99.90;;;;;;6750701;88;20193;-83
2022/04/26 18:26:12;;;;;;;14.00;9.18;;;9.70;99.90;;;;;;6745651;88;20184;-80
2022/04/26 18:36:17;;;;;;;16.23;10.32;;;9.70;99.90;;;;;;6745453;88;20169;-82
2022/04/26 18:46:21;;;;;;;14.75;10.43;;;9.50;99.90;;;;;;6730399;88;20175;-81
2022/04/26 18:56:22;;;;;;;15.93;9.93;;;9.70;99.90;;;;;;6729045;88;20190;-82
2022/04/26 19:06:24;;;;;;;14.98;10.25;;;9.80;99.90;;;;;;6729215;88;20395;-81
2022/04/26 19:16:25;;;;;;;14.87;10.35;;;9.70;99.90;;;;;;6728049;88;20650;-81
2022/04/26 19:26:26;;;;;;;17.55;11.45;;;9.70;99.90;;;;;;6719675;88;20208;-82
2022/04/26 19:36:27;;;;;;;19.37;12.48;;;9.70;99.90;;;;;;6718709;88;20213;-84
2022/04/26 19:46:27;;;;;;;19.63;12.43;;;9.50;99.90;;;;;;6718390;88;20166;-84
2022/04/26 19:56:29;;;;;;;18.25;12.65;;;9.40;99.90;;;;;;6717466;88;20500;-83
2022/04/26 20:06:30;;;;;;;20.05;13.38;;;9.40;99.90;;;;;;6716516;88;20311;-82
2022/04/26 20:16:30;;;;;;;20.37;14.02;;;9.40;99.90;;;;;;6708101;88;20202;-82
2022/04/26 20:36:50;;;;;;;22.85;15.65;;;9.40;99.90;;;;;;6728639;88;20558;-83
2022/04/26 20:46:52;;;;;;;24.92;16.05;;;9.40;99.90;;;;;;6745303;88;20258;-84
2022/04/26 20:57:33;;;;;;;28.83;17.02;;;9.40;99.90;;;;;;6796324;77;20175;-79
2022/04/26 21:07:34;;;;;;;26.90;16.48;;;9.50;99.90;;;;;;6768027;88;20712;-81
2022/04/26 21:17:34;;;;;;;29.52;18.77;;;9.40;99.90;;;;;;6763399;88;20185;-79
2022/04/26 21:27:35;;;;;;;29.87;18.52;;;9.50;99.90;;;;;;6767791;88;20162;-78
2022/04/26 21:37:36;;;;;;;34.65;20.48;;;9.50;99.90;;;;;;6751838;88;20166;-79
2022/04/26 21:47:37;;;;;;;29.90;19.35;;;9.50;99.90;;;;;;6757636;88;20187;-79
2022/04/26 21:57:38;;;;;;;35.22;20.88;;;9.50;99.90;;;;;;6767986;88;20255;-80
2022/04/26 22:07:39;;;;;;;37.22;22.30;;;9.50;99.90;;;;;;6765861;88;21043;-80
2022/04/26 22:17:40;;;;;;;39.33;23.23;;;9.40;99.90;;;;;;6748305;88;20183;-80
2022/04/26 22:27:41;;;;;;;34.25;21.08;;;9.30;99.90;;;;;;6730620;88;20181;-79
2022/04/26 22:37:42;;;;;;;36.97;22.42;;;9.40;99.90;;;;;;6730463;88;20189;-80
2022/04/26 22:47:42;;;;;;;35.17;22.37;;;9.40;99.90;;;;;;6758941;88;20164;-80
2022/04/26 22:57:43;;;;;;;35.47;22.30;;;9.40;99.90;;;;;;6713332;88;20254;-80
2022/04/26 23:07:43;;;;;;;37.53;22.92;;;9.50;99.90;;;;;;6696633;89;20248;-80
2022/04/26 23:17:47;;;;;;;35.47;22.75;;;9.40;99.90;;;;;;6723528;88;20845;-81
2022/04/26 23:27:48;;;;;;;42.53;25.05;;;9.40;99.90;;;;;;6773209;88;20163;-80
2022/04/26 23:37:48;;;;;;;42.35;24.65;;;9.30;99.90;;;;;;6780344;88;20181;-79
2022/04/26 23:47:49;;;;;;;46.08;24.92;;;9.30;99.90;;;;;;6781771;88;20330;-80
2022/04/26 23:57:52;;;;;;;37.58;21.87;;;9.10;99.90;;;;;;6781431;88;20440;-79
